createdAt,value
2022-12-06T00:01:14.595Z,66.67
2022-12-06T00:03:45.504Z,63.53
2022-12-06T00:06:19.219Z,61.93
2022-12-06T00:08:49.769Z,58.10
2022-12-06T00:11:20.150Z,59.00
2022-12-06T00:13:49.072Z,61.27
2022-12-06T00:16:18.500Z,61.77
2022-12-06T00:18:48.515Z,58.33
2022-12-06T00:21:23.139Z,63.90
2022-12-06T00:23:55.139Z,61.03
2022-12-06T00:26:25.601Z,58.90
2022-12-06T00:28:54.406Z,62.73
2022-12-06T00:31:24.499Z,57.50
2022-12-06T00:33:52.984Z,58.13
2022-12-06T00:36:22.819Z,60.27
2022-12-06T00:38:52.737Z,60.67
2022-12-06T00:41:22.159Z,63.17
2022-12-06T00:43:51.105Z,57.40
2022-12-06T00:46:21.316Z,57.40
2022-12-06T00:48:50.537Z,51.90
2022-12-06T00:51:20.003Z,50.67
2022-12-06T00:53:48.757Z,59.37
2022-12-06T00:56:19.417Z,57.17
2022-12-06T00:58:47.764Z,54.10
2022-12-06T01:01:18.128Z,55.87
2022-12-06T01:03:47.076Z,55.17
2022-12-06T01:06:17.097Z,62.53
2022-12-06T01:08:46.075Z,55.77
2022-12-06T01:11:16.415Z,57.70
2022-12-06T01:13:45.882Z,54.50
2022-12-06T01:16:16.047Z,61.67
2022-12-06T01:18:45.419Z,57.83
2022-12-06T01:21:16.070Z,62.67
2022-12-06T01:23:44.792Z,55.37
2022-12-06T01:26:17.531Z,58.13
2022-12-06T01:28:47.464Z,58.47
2022-12-06T01:31:16.501Z,55.67
2022-12-06T01:33:45.413Z,60.20
2022-12-06T01:36:18.223Z,57.57
2022-12-06T01:38:50.832Z,60.07
2022-12-06T01:41:19.335Z,61.20
2022-12-06T01:43:49.356Z,56.57
2022-12-06T01:46:29.405Z,51.93
2022-12-06T01:49:04.054Z,55.07
2022-12-06T01:51:32.175Z,56.77
2022-12-06T01:54:03.099Z,60.03
2022-12-06T01:56:31.681Z,57.80
2022-12-06T01:59:01.515Z,60.47
2022-12-06T02:01:32.705Z,53.00
2022-12-06T02:04:02.348Z,54.47
2022-12-06T02:06:32.250Z,53.13
2022-12-06T02:09:03.485Z,62.63
2022-12-06T02:11:35.227Z,56.10
2022-12-06T02:14:08.490Z,61.63
2022-12-06T02:16:56.412Z,62.47
2022-12-06T02:19:45.400Z,53.93
2022-12-06T02:22:20.898Z,61.53
2022-12-06T02:25:25.114Z,72.77
2022-12-06T02:28:12.173Z,80.30
2022-12-06T02:30:48.482Z,83.53
2022-12-06T02:33:23.577Z,79.20
2022-12-06T02:35:59.524Z,64.87
2022-12-06T02:38:36.190Z,65.50
2022-12-06T02:41:10.322Z,67.83
2022-12-06T02:43:42.370Z,58.87
2022-12-06T02:46:14.781Z,58.17
2022-12-06T02:48:44.880Z,55.60
2022-12-06T02:51:17.230Z,57.93
2022-12-06T02:53:49.005Z,57.23
2022-12-06T02:56:18.668Z,64.37
2022-12-06T02:58:48.738Z,57.67
2022-12-06T03:01:21.712Z,64.27
2022-12-06T03:04:12.059Z,64.20
2022-12-06T03:07:11.297Z,59.07
2022-12-06T03:09:52.280Z,59.50
2022-12-06T03:12:31.754Z,58.57
2022-12-06T03:15:10.477Z,56.47
2022-12-06T03:17:45.868Z,57.13
2022-12-06T03:20:19.308Z,66.93
2022-12-06T03:22:51.030Z,61.10
2022-12-06T03:25:19.668Z,61.70
2022-12-06T03:27:50.186Z,59.63
2022-12-06T03:30:18.764Z,55.93
2022-12-06T03:32:51.291Z,58.73
2022-12-06T03:35:25.644Z,57.43
2022-12-06T03:37:59.322Z,60.50
2022-12-06T03:40:29.962Z,63.00
2022-12-06T03:42:58.672Z,66.03
2022-12-06T03:45:32.520Z,61.63
2022-12-06T03:48:06.622Z,67.53
2022-12-06T03:50:39.388Z,59.23
2022-12-06T03:53:07.773Z,59.63
2022-12-06T03:55:35.888Z,58.67
2022-12-06T03:58:04.130Z,63.90
2022-12-06T04:00:32.343Z,66.43
2022-12-06T04:03:01.770Z,72.93
2022-12-06T04:05:29.909Z,63.07
2022-12-06T04:07:58.019Z,63.23
2022-12-06T04:10:26.191Z,74.30
2022-12-06T04:13:03.250Z,68.37
2022-12-06T04:15:33.046Z,61.97
2022-12-06T04:18:10.920Z,77.10
2022-12-06T04:21:01.725Z,69.77
2022-12-06T04:23:30.956Z,75.20
2022-12-06T04:25:59.077Z,65.17
2022-12-06T04:28:44.770Z,68.47
2022-12-06T04:31:30.341Z,60.97
2022-12-06T04:34:17.531Z,67.40
2022-12-06T04:37:04.301Z,69.87
2022-12-06T04:39:32.454Z,135.07
2022-12-06T04:42:20.288Z,80.43
2022-12-06T04:44:48.854Z,70.27
2022-12-06T04:47:17.105Z,60.87
2022-12-06T04:49:46.641Z,66.57
2022-12-06T04:52:14.858Z,64.43
2022-12-06T04:54:44.842Z,67.10
2022-12-06T04:57:15.770Z,68.37
2022-12-06T04:59:46.241Z,65.50
2022-12-06T05:02:16.317Z,70.77
2022-12-06T05:04:44.458Z,61.73
2022-12-06T05:07:14.153Z,59.43
2022-12-06T05:09:42.302Z,58.00
2022-12-06T05:12:10.589Z,65.53
2022-12-06T05:14:39.184Z,60.00
2022-12-06T05:17:07.393Z,50.57
2022-12-06T05:19:35.540Z,51.37
2022-12-06T05:22:03.692Z,60.70
2022-12-06T05:24:33.615Z,48.00
2022-12-06T05:27:01.657Z,51.90
2022-12-06T05:29:29.777Z,47.23
2022-12-06T05:31:57.983Z,49.20
2022-12-06T05:34:26.280Z,48.47
2022-12-06T05:36:54.383Z,54.20
2022-12-06T05:39:22.525Z,45.50
2022-12-06T05:41:52.066Z,46.07
2022-12-06T05:44:20.502Z,46.47
2022-12-06T05:46:48.691Z,48.10
2022-12-06T05:49:16.745Z,44.00
2022-12-06T05:51:44.790Z,46.60
2022-12-06T05:54:13.016Z,45.57
2022-12-06T05:56:41.178Z,54.67
2022-12-06T05:59:10.680Z,46.77
2022-12-06T06:01:38.986Z,49.30
2022-12-06T06:04:07.097Z,53.20
2022-12-06T06:06:35.231Z,57.20
2022-12-06T06:09:03.301Z,54.20
2022-12-06T06:11:31.422Z,55.43
2022-12-06T06:13:59.505Z,50.73
2022-12-06T06:16:29.127Z,53.73
2022-12-06T06:18:57.332Z,54.37
2022-12-06T06:21:25.494Z,51.70
2022-12-06T06:23:53.763Z,52.97
2022-12-06T06:26:22.085Z,63.40
2022-12-06T06:28:50.796Z,53.10
2022-12-06T06:31:19.154Z,57.80
2022-12-06T06:33:49.025Z,49.10
2022-12-06T06:36:17.258Z,50.57
2022-12-06T06:38:45.393Z,50.87
2022-12-06T06:41:13.557Z,47.00
2022-12-06T06:43:41.909Z,52.23
2022-12-06T06:46:11.865Z,51.80
2022-12-06T06:48:41.374Z,53.53
2022-12-06T06:51:12.409Z,50.20
2022-12-06T06:53:41.000Z,58.17
2022-12-06T06:56:09.958Z,52.03
2022-12-06T06:58:38.524Z,54.57
2022-12-06T07:01:08.955Z,50.07
2022-12-06T07:03:37.092Z,54.10
2022-12-06T07:06:09.307Z,62.60
2022-12-06T07:08:39.634Z,57.00
2022-12-06T07:11:07.771Z,57.37
2022-12-06T07:13:37.984Z,58.03
2022-12-06T07:16:08.171Z,55.90
2022-12-06T07:18:36.334Z,50.03
2022-12-06T07:21:06.027Z,52.63
2022-12-06T07:23:35.593Z,51.73
2022-12-06T07:26:08.045Z,49.43
2022-12-06T07:28:37.246Z,61.07
2022-12-06T07:31:12.881Z,54.57
2022-12-06T07:33:41.471Z,55.57
2022-12-06T07:36:12.869Z,60.43
2022-12-06T07:38:42.214Z,53.77
2022-12-06T07:41:31.219Z,50.33
2022-12-06T07:44:17.722Z,57.53
2022-12-06T07:46:46.354Z,50.07
2022-12-06T07:49:15.793Z,50.93
2022-12-06T07:51:43.987Z,50.77
2022-12-06T07:54:12.138Z,54.17
2022-12-06T07:56:42.246Z,53.57
2022-12-06T07:59:10.640Z,48.47
2022-12-06T08:01:38.793Z,45.13
2022-12-06T08:04:07.942Z,48.60
2022-12-06T08:06:36.521Z,52.37
2022-12-06T08:09:05.178Z,50.60
2022-12-06T08:11:33.333Z,44.43
2022-12-06T08:14:03.027Z,35.60
2022-12-06T08:16:31.080Z,48.77
2022-12-06T08:18:59.296Z,48.57
2022-12-06T08:21:27.406Z,50.17
2022-12-06T08:23:56.755Z,44.23
2022-12-06T08:26:25.281Z,47.57
2022-12-06T08:28:53.672Z,46.50
2022-12-06T08:31:25.202Z,52.83
2022-12-06T08:33:53.489Z,52.30
2022-12-06T08:36:23.684Z,55.03
2022-12-06T08:38:52.488Z,48.07
2022-12-06T08:41:38.954Z,49.20
2022-12-06T08:44:07.663Z,50.33
2022-12-06T08:46:37.321Z,51.23
2022-12-06T08:49:06.160Z,52.90
2022-12-06T08:51:36.223Z,50.53
2022-12-06T08:54:06.172Z,50.20
2022-12-06T08:56:34.408Z,52.63
2022-12-06T08:59:02.704Z,59.20
2022-12-06T09:01:37.407Z,49.97
2022-12-06T09:04:09.107Z,57.00
2022-12-06T09:06:40.017Z,53.70
2022-12-06T09:09:09.979Z,55.90
2022-12-06T09:11:39.144Z,59.50
2022-12-06T09:14:09.321Z,56.23
2022-12-06T09:16:37.915Z,59.00
2022-12-06T09:19:07.317Z,57.47
2022-12-06T09:21:35.340Z,59.57
2022-12-06T09:24:03.465Z,60.00
2022-12-06T09:26:31.543Z,59.10
2022-12-06T09:29:00.368Z,69.00
2022-12-06T09:31:28.498Z,88.60
2022-12-06T09:33:56.927Z,75.20
2022-12-06T09:36:29.160Z,57.37
2022-12-06T09:39:00.897Z,67.10
2022-12-06T09:42:11.650Z,70.57
2022-12-06T09:45:13.338Z,67.63
2022-12-06T09:47:59.252Z,70.57
2022-12-06T09:50:40.764Z,65.00
2022-12-06T09:53:21.242Z,69.93
2022-12-06T09:55:59.389Z,59.63
2022-12-06T09:58:41.712Z,62.27
2022-12-06T10:01:19.911Z,63.00
2022-12-06T10:04:27.951Z,76.77
2022-12-06T10:07:05.470Z,78.10
2022-12-06T10:09:47.795Z,72.07
2022-12-06T10:12:28.779Z,67.40
2022-12-06T10:15:14.448Z,67.63
2022-12-06T10:17:52.669Z,61.57
2022-12-06T10:20:31.113Z,65.73
2022-12-06T10:23:12.657Z,68.40
2022-12-06T10:25:48.071Z,62.17
2022-12-06T10:28:25.559Z,73.00
2022-12-06T10:31:03.088Z,76.33
2022-12-06T10:33:39.780Z,79.87
2022-12-06T10:36:11.155Z,62.73
2022-12-06T10:38:44.843Z,74.93
2022-12-06T10:41:21.319Z,78.57
2022-12-06T10:43:55.642Z,74.50
2022-12-06T10:46:49.274Z,69.33
2022-12-06T10:49:26.318Z,70.57
2022-12-06T10:52:00.091Z,74.97
2022-12-06T10:54:34.519Z,64.40
2022-12-06T10:57:08.685Z,65.03
2022-12-06T10:59:42.396Z,69.93
2022-12-06T11:02:23.202Z,72.30
2022-12-06T11:04:54.349Z,62.83
2022-12-06T11:07:26.718Z,67.17
2022-12-06T11:09:57.683Z,69.00
2022-12-06T11:12:32.738Z,55.20
2022-12-06T11:15:08.466Z,59.80
2022-12-06T11:17:43.478Z,59.60
2022-12-06T11:20:24.014Z,65.17
2022-12-06T11:23:06.097Z,62.90
2022-12-06T11:25:43.496Z,58.20
2022-12-06T11:28:29.504Z,54.57
2022-12-06T11:30:58.727Z,48.33
2022-12-06T11:33:32.115Z,46.17
2022-12-06T11:36:03.777Z,51.13
2022-12-06T11:38:32.566Z,64.77
2022-12-06T11:41:01.023Z,46.27
2022-12-06T11:43:35.411Z,54.40
2022-12-06T11:46:05.471Z,51.10
2022-12-06T11:48:36.898Z,54.97
2022-12-06T11:51:05.284Z,64.90
2022-12-06T11:53:38.170Z,61.57
2022-12-06T11:56:14.556Z,65.73
2022-12-06T11:58:52.249Z,72.57
2022-12-06T12:01:20.334Z,61.27
2022-12-06T12:03:48.840Z,34.77
2022-12-06T12:06:21.377Z,36.23
2022-12-06T12:08:59.674Z,36.03
2022-12-06T12:11:30.730Z,34.03
2022-12-06T12:14:04.929Z,38.37
2022-12-06T12:16:37.260Z,42.83
2022-12-06T12:19:25.281Z,49.90
2022-12-06T12:21:55.480Z,48.63
2022-12-06T12:27:45.149Z,59.63
2022-12-06T12:30:36.990Z,56.17
2022-12-06T12:33:21.136Z,60.70
2022-12-06T12:35:55.600Z,53.40
2022-12-06T12:38:38.221Z,49.77
2022-12-06T12:41:24.821Z,54.63
2022-12-06T12:46:57.237Z,57.03
2022-12-06T12:49:29.560Z,58.20
2022-12-06T12:51:58.686Z,61.67
2022-12-06T12:54:30.593Z,53.27
2022-12-06T12:57:00.376Z,49.40
2022-12-06T12:59:34.332Z,51.57
2022-12-06T13:02:13.176Z,46.40
2022-12-06T13:04:45.999Z,50.00
2022-12-06T13:07:22.271Z,49.27
2022-12-06T13:09:58.131Z,57.43
2022-12-06T13:12:32.430Z,54.13
2022-12-06T13:15:05.295Z,51.47
2022-12-06T13:17:38.801Z,47.87
2022-12-06T13:20:24.024Z,47.87
2022-12-06T13:22:55.629Z,56.57
2022-12-06T13:25:24.043Z,48.50
2022-12-06T13:27:55.154Z,57.43
2022-12-06T13:30:25.650Z,57.87
2022-12-06T13:32:59.610Z,54.77
2022-12-06T13:35:32.203Z,54.63
2022-12-06T13:38:01.883Z,63.00
2022-12-06T13:40:46.532Z,61.90
2022-12-06T13:43:57.628Z,62.23
2022-12-06T13:46:34.436Z,55.33
2022-12-06T13:49:06.740Z,72.80
2022-12-06T13:51:47.555Z,57.63
2022-12-06T13:54:36.529Z,58.67
2022-12-06T13:57:22.955Z,57.10
2022-12-06T13:59:51.166Z,50.93
2022-12-06T14:02:52.728Z,51.90
2022-12-06T14:06:06.006Z,59.17
2022-12-06T14:08:42.696Z,57.33
2022-12-06T14:11:22.308Z,55.20
2022-12-06T14:14:01.295Z,48.77
2022-12-06T14:16:35.413Z,51.33
2022-12-06T14:19:13.738Z,52.93
2022-12-06T14:21:51.298Z,53.10
2022-12-06T14:24:34.939Z,50.00
2022-12-06T14:27:08.499Z,52.00
2022-12-06T14:29:36.780Z,56.53
2022-12-06T14:32:04.971Z,55.37
2022-12-06T14:34:35.252Z,67.07
2022-12-06T14:37:20.211Z,69.33
2022-12-06T14:39:53.532Z,77.40
2022-12-06T14:42:40.661Z,85.53
2022-12-06T14:45:15.660Z,66.10
2022-12-06T14:47:45.282Z,61.63
2022-12-06T14:50:28.371Z,53.93
2022-12-06T14:53:03.721Z,59.00
2022-12-06T14:55:34.157Z,55.17
2022-12-06T14:58:04.257Z,52.43
2022-12-06T15:00:37.576Z,58.47
2022-12-06T15:03:23.890Z,66.87
2022-12-06T15:06:13.187Z,105.43
2022-12-06T15:08:44.246Z,109.27
2022-12-06T15:11:45.370Z,69.13
2022-12-06T15:14:15.907Z,55.73
2022-12-06T15:16:46.604Z,59.77
2022-12-06T15:19:18.659Z,52.57
2022-12-06T15:21:46.884Z,49.07
2022-12-06T15:24:21.662Z,59.43
2022-12-06T15:26:49.939Z,46.83
2022-12-06T15:29:18.707Z,43.67
2022-12-06T15:31:50.606Z,44.40
2022-12-06T15:34:25.903Z,49.70
2022-12-06T15:37:15.239Z,55.63
2022-12-06T15:39:45.635Z,48.53
2022-12-06T15:42:20.682Z,56.17
2022-12-06T15:44:52.004Z,61.67
2022-12-06T15:47:20.701Z,60.60
2022-12-06T15:49:51.026Z,63.47
2022-12-06T15:52:24.475Z,60.83
2022-12-06T15:54:53.955Z,53.80
2022-12-06T15:57:22.028Z,45.00
2022-12-06T15:59:50.222Z,48.87
2022-12-06T16:02:19.622Z,52.43
2022-12-06T16:04:51.095Z,49.30
2022-12-06T16:07:19.764Z,49.20
2022-12-06T16:09:48.517Z,42.90
2022-12-06T16:12:18.182Z,46.00
2022-12-06T16:14:46.379Z,52.90
2022-12-06T16:17:14.451Z,47.90
2022-12-06T16:20:08.936Z,51.37
2022-12-06T16:22:54.353Z,55.67
2022-12-06T16:25:22.507Z,57.00
2022-12-06T16:27:52.249Z,63.50
2022-12-06T16:30:32.756Z,56.50
2022-12-06T16:33:07.153Z,63.73
2022-12-06T16:35:36.142Z,73.17
2022-12-06T16:38:04.259Z,58.57
2022-12-06T16:40:34.059Z,60.33
2022-12-06T16:43:03.720Z,66.50
2022-12-06T16:45:33.287Z,68.53
2022-12-06T16:48:01.468Z,55.53
2022-12-06T16:50:29.777Z,63.30
2022-12-06T16:52:57.888Z,49.27
2022-12-06T16:55:26.071Z,57.20
2022-12-06T16:57:54.331Z,56.37
2022-12-06T17:00:24.465Z,60.57
2022-12-06T17:02:52.676Z,55.63
2022-12-06T17:05:23.901Z,50.40
2022-12-06T17:07:52.530Z,54.07
2022-12-06T17:10:21.751Z,62.67
2022-12-06T17:12:50.949Z,53.67
2022-12-06T17:15:21.144Z,61.10
2022-12-06T17:17:50.981Z,71.53
2022-12-06T17:20:19.875Z,66.17
2022-12-06T17:22:48.362Z,91.83
2022-12-06T17:25:17.507Z,103.20
2022-12-06T17:27:46.036Z,98.30
2022-12-06T17:30:18.027Z,78.83
2022-12-06T17:32:48.037Z,69.43
2022-12-06T17:35:17.712Z,64.67
2022-12-06T17:37:45.781Z,64.53
2022-12-06T17:40:14.924Z,69.00
2022-12-06T17:43:01.088Z,54.53
2022-12-06T17:45:29.205Z,50.50
2022-12-06T17:47:57.452Z,60.10
2022-12-06T17:50:27.048Z,64.07
2022-12-06T17:52:55.159Z,51.43
2022-12-06T17:55:23.225Z,56.30
2022-12-06T17:57:51.276Z,58.63
2022-12-06T18:00:19.983Z,54.00
2022-12-06T18:02:48.761Z,58.03
2022-12-06T18:05:17.441Z,65.20
2022-12-06T18:07:47.092Z,88.03
2022-12-06T18:10:15.217Z,160.93
2022-12-06T18:12:43.832Z,96.83
2022-12-06T18:15:33.229Z,63.37
2022-12-06T18:18:01.369Z,72.90
2022-12-06T18:20:29.505Z,59.77
2022-12-06T18:22:58.967Z,52.13
2022-12-06T18:25:26.961Z,60.73
2022-12-06T18:27:54.989Z,66.40
2022-12-06T18:30:23.097Z,48.33
2022-12-06T18:32:51.382Z,75.63
2022-12-06T18:35:19.552Z,58.60
2022-12-06T18:37:47.709Z,53.77
2022-12-06T18:40:17.250Z,57.87
2022-12-06T18:42:45.413Z,54.23
2022-12-06T18:45:13.565Z,55.53
2022-12-06T18:47:41.806Z,55.43
2022-12-06T18:50:10.655Z,61.03
2022-12-06T18:52:38.793Z,57.33
2022-12-06T18:55:08.027Z,51.23
2022-12-06T18:57:39.702Z,54.60
2022-12-06T19:00:09.068Z,61.47
2022-12-06T19:02:37.278Z,62.23
2022-12-06T19:05:06.177Z,75.87
2022-12-06T19:07:35.081Z,65.60
2022-12-06T19:10:03.557Z,62.87
2022-12-06T19:12:31.931Z,55.80
2022-12-06T19:15:01.432Z,63.63
2022-12-06T19:17:29.748Z,51.17
2022-12-06T19:19:57.960Z,54.10
2022-12-06T19:22:26.329Z,59.00
2022-12-06T19:24:54.436Z,50.80
2022-12-06T19:27:22.583Z,49.57
2022-12-06T19:29:50.807Z,60.37
2022-12-06T19:32:20.324Z,71.90
2022-12-06T19:34:48.547Z,53.43
2022-12-06T19:37:17.531Z,45.03
2022-12-06T19:39:46.026Z,52.37
2022-12-06T19:42:31.746Z,55.93
2022-12-06T19:44:59.847Z,55.67
2022-12-06T19:47:29.469Z,52.43
2022-12-06T19:49:58.732Z,49.23
2022-12-06T19:52:30.822Z,45.43
2022-12-06T19:54:59.477Z,66.63
2022-12-06T19:57:27.767Z,60.60
2022-12-06T19:59:56.569Z,68.83
2022-12-06T20:02:24.888Z,56.53
2022-12-06T20:04:54.440Z,57.07
2022-12-06T20:07:22.619Z,54.87
2022-12-06T20:09:50.768Z,60.07
2022-12-06T20:12:18.928Z,55.40
2022-12-06T20:14:52.514Z,59.43
2022-12-06T20:17:23.790Z,60.43
2022-12-06T20:19:52.079Z,64.90
2022-12-06T20:22:22.835Z,53.30
2022-12-06T20:24:51.082Z,56.20
2022-12-06T20:27:39.245Z,49.53
2022-12-06T20:30:08.522Z,56.93
2022-12-06T20:32:36.591Z,56.50
2022-12-06T20:35:06.090Z,64.10
2022-12-06T20:37:35.702Z,63.53
2022-12-06T20:40:06.277Z,55.73
2022-12-06T20:42:34.933Z,62.10
2022-12-06T20:45:03.083Z,64.73
2022-12-06T20:47:31.182Z,62.27
2022-12-06T20:49:59.595Z,59.30
2022-12-06T20:52:27.995Z,61.63
2022-12-06T20:54:57.422Z,58.53
2022-12-06T20:57:25.599Z,58.87
2022-12-06T20:59:53.813Z,62.80
2022-12-06T21:02:22.016Z,69.37
2022-12-06T21:04:50.345Z,66.17
2022-12-06T21:07:19.160Z,59.30
2022-12-06T21:09:47.920Z,62.33
2022-12-06T21:12:20.261Z,68.53
2022-12-06T21:14:48.436Z,74.10
2022-12-06T21:17:16.738Z,66.73
2022-12-06T21:19:45.308Z,64.23
2022-12-06T21:22:15.134Z,64.40
2022-12-06T21:24:44.087Z,69.97
2022-12-06T21:27:12.306Z,70.53
2022-12-06T21:29:42.695Z,75.87
2022-12-06T21:32:10.770Z,77.77
2022-12-06T21:34:46.040Z,80.20
2022-12-06T21:37:14.685Z,81.17
2022-12-06T21:39:46.472Z,84.73
2022-12-06T21:42:15.899Z,89.80
2022-12-06T21:44:45.467Z,92.30
2022-12-06T21:47:13.706Z,97.83
2022-12-06T21:49:42.454Z,106.07
2022-12-06T21:52:10.566Z,103.67
2022-12-06T21:54:38.741Z,106.87
2022-12-06T21:57:06.922Z,107.33
2022-12-06T21:59:35.061Z,105.50
2022-12-06T22:02:04.657Z,108.03
2022-12-06T22:04:32.855Z,96.10
2022-12-06T22:07:01.128Z,102.03
2022-12-06T22:09:31.327Z,109.83
2022-12-06T22:11:59.499Z,94.10
2022-12-06T22:14:27.706Z,95.13
2022-12-06T22:16:55.889Z,87.97
2022-12-06T22:19:25.481Z,94.87
2022-12-06T22:21:56.080Z,96.50
2022-12-06T22:24:24.473Z,90.60
2022-12-06T22:26:52.523Z,91.80
2022-12-06T22:29:20.554Z,97.23
2022-12-06T22:31:48.684Z,84.97
2022-12-06T22:34:16.683Z,92.03
2022-12-06T22:36:46.300Z,78.27
2022-12-06T22:39:14.329Z,74.37
2022-12-06T22:41:42.696Z,71.23
2022-12-06T22:44:13.027Z,67.73
2022-12-06T22:46:41.525Z,69.53
2022-12-06T22:49:12.612Z,65.30
2022-12-06T22:51:45.923Z,59.40
2022-12-06T22:54:15.400Z,56.20
2022-12-06T22:56:48.466Z,55.73
2022-12-06T22:59:18.068Z,58.77
2022-12-06T23:01:46.316Z,52.40
2022-12-06T23:04:14.543Z,45.50
2022-12-06T23:06:42.751Z,36.93
2022-12-06T23:09:16.821Z,41.60
2022-12-06T23:11:45.301Z,40.40
2022-12-06T23:14:13.640Z,35.73
2022-12-06T23:16:43.843Z,30.03
2022-12-06T23:19:12.086Z,31.70
2022-12-06T23:21:40.964Z,32.63
2022-12-06T23:24:12.318Z,34.20
2022-12-06T23:26:44.147Z,38.40
2022-12-06T23:29:13.067Z,33.03
2022-12-06T23:31:43.012Z,41.97
2022-12-06T23:34:16.061Z,40.03
2022-12-06T23:36:44.885Z,36.50
2022-12-06T23:39:13.571Z,43.00
2022-12-06T23:41:43.589Z,37.90
2022-12-06T23:44:13.751Z,42.03
2022-12-06T23:46:43.924Z,43.83
2022-12-06T23:49:17.640Z,44.77
2022-12-06T23:51:46.576Z,42.87
2022-12-06T23:54:15.964Z,45.00
2022-12-06T23:56:46.800Z,39.90
2022-12-06T23:59:16.339Z,40.47
